sensor_id;sensor_type;location;lat;lon;timestamp;pressure;altitude;pressure_sealevel;temperature;humidity
40155;BME280;25875;48.202;16.334;2023-05-20T00:01:02;99580.09;;;13.48;72.20
40155;BME280;25875;48.202;16.334;2023-05-20T00:03:29;99605.09;;;13.60;72.26
40155;BME280;25875;48.202;16.334;2023-05-20T00:05:56;99595.50;;;13.58;71.77
40155;BME280;25875;48.202;16.334;2023-05-20T00:08:23;99596.34;;;13.58;71.98
40155;BME280;25875;48.202;16.334;2023-05-20T00:10:49;99596.47;;;13.57;71.94
40155;BME280;25875;48.202;16.334;2023-05-20T00:13:16;99603.59;;;13.56;72.09
40155;BME280;25875;48.202;16.334;2023-05-20T00:15:44;99602.84;;;13.54;72.40
40155;BME280;25875;48.202;16.334;2023-05-20T00:18:11;99549.41;;;13.29;72.51
40155;BME280;25875;48.202;16.334;2023-05-20T00:20:38;99590.56;;;13.52;72.61
40155;BME280;25875;48.202;16.334;2023-05-20T00:23:05;99502.66;;;12.96;72.35
40155;BME280;25875;48.202;16.334;2023-05-20T00:25:31;99594.28;;;13.49;72.33
40155;BME280;25875;48.202;16.334;2023-05-20T00:27:58;99592.56;;;13.48;72.71
40155;BME280;25875;48.202;16.334;2023-05-20T00:30:25;99598.84;;;13.47;72.87
40155;BME280;25875;48.202;16.334;2023-05-20T00:32:53;99593.53;;;13.47;72.61
40155;BME280;25875;48.202;16.334;2023-05-20T00:35:20;99594.56;;;13.44;72.64
40155;BME280;25875;48.202;16.334;2023-05-20T00:37:46;99592.84;;;13.43;72.47
40155;BME280;25875;48.202;16.334;2023-05-20T00:40:13;99585.03;;;13.40;72.75
40155;BME280;25875;48.202;16.334;2023-05-20T00:42:40;99588.75;;;13.38;72.65
40155;BME280;25875;48.202;16.334;2023-05-20T00:45:08;99540.38;;;13.03;72.75
40155;BME280;25875;48.202;16.334;2023-05-20T00:47:35;99576.56;;;13.34;72.78
40155;BME280;25875;48.202;16.334;2023-05-20T00:50:04;99583.72;;;13.33;72.57
40155;BME280;25875;48.202;16.334;2023-05-20T00:52:31;99568.78;;;13.31;72.72
40155;BME280;25875;48.202;16.334;2023-05-20T00:54:58;99565.47;;;13.27;72.85
40155;BME280;25875;48.202;16.334;2023-05-20T00:57:25;99576.28;;;13.24;73.05
40155;BME280;25875;48.202;16.334;2023-05-20T00:59:52;99432.69;;;12.39;72.81
40155;BME280;25875;48.202;16.334;2023-05-20T01:02:20;99567.84;;;13.18;73.01
40155;BME280;25875;48.202;16.334;2023-05-20T01:04:46;99560.25;;;13.11;73.13
40155;BME280;25875;48.202;16.334;2023-05-20T01:07:16;99461.34;;;12.48;73.16
40155;BME280;25875;48.202;16.334;2023-05-20T01:09:43;99562.91;;;13.11;72.84
40155;BME280;25875;48.202;16.334;2023-05-20T01:12:14;99559.47;;;13.09;73.17
40155;BME280;25875;48.202;16.334;2023-05-20T01:14:46;99416.16;;;12.19;73.50
40155;BME280;25875;48.202;16.334;2023-05-20T01:17:15;99567.66;;;13.06;73.35
40155;BME280;25875;48.202;16.334;2023-05-20T01:19:43;99565.94;;;13.05;73.35
40155;BME280;25875;48.202;16.334;2023-05-20T01:22:12;99311.66;;;11.61;72.99
40155;BME280;25875;48.202;16.334;2023-05-20T01:24:42;99555.50;;;13.02;73.65
40155;BME280;25875;48.202;16.334;2023-05-20T01:27:09;99555.59;;;13.01;73.42
40155;BME280;25875;48.202;16.334;2023-05-20T01:29:38;99316.75;;;11.49;73.51
40155;BME280;25875;48.202;16.334;2023-05-20T01:32:08;99560.34;;;12.96;73.58
40155;BME280;25875;48.202;16.334;2023-05-20T01:34:37;99445.94;;;12.25;73.58
40155;BME280;25875;48.202;16.334;2023-05-20T01:37:09;99486.31;;;12.45;73.63
40155;BME280;25875;48.202;16.334;2023-05-20T01:39:38;99550.16;;;12.88;73.69
40155;BME280;25875;48.202;16.334;2023-05-20T01:42:08;99497.34;;;12.54;73.95
40155;BME280;25875;48.202;16.334;2023-05-20T01:44:36;99557.00;;;12.92;73.93
40155;BME280;25875;48.202;16.334;2023-05-20T01:47:03;99369.25;;;11.74;73.96
40155;BME280;25875;48.202;16.334;2023-05-20T01:49:29;99557.28;;;12.88;73.88
40155;BME280;25875;48.202;16.334;2023-05-20T01:51:56;99562.81;;;12.84;73.82
40155;BME280;25875;48.202;16.334;2023-05-20T01:54:23;99560.50;;;12.78;73.84
40155;BME280;25875;48.202;16.334;2023-05-20T01:56:50;99557.94;;;12.77;73.84
40155;BME280;25875;48.202;16.334;2023-05-20T01:59:18;99557.94;;;12.77;73.92
40155;BME280;25875;48.202;16.334;2023-05-20T02:01:45;99554.53;;;12.75;74.09
40155;BME280;25875;48.202;16.334;2023-05-20T02:04:12;99552.81;;;12.74;73.80
40155;BME280;25875;48.202;16.334;2023-05-20T02:06:39;99550.16;;;12.74;73.75
40155;BME280;25875;48.202;16.334;2023-05-20T02:09:06;99557.19;;;12.75;73.73
40155;BME280;25875;48.202;16.334;2023-05-20T02:11:33;99563.44;;;12.74;73.80
40155;BME280;25875;48.202;16.334;2023-05-20T02:14:00;99563.53;;;12.72;73.73
40155;BME280;25875;48.202;16.334;2023-05-20T02:16:28;99557.38;;;12.72;73.57
40155;BME280;25875;48.202;16.334;2023-05-20T02:18:55;99561.94;;;12.70;73.82
40155;BME280;25875;48.202;16.334;2023-05-20T02:21:23;99495.50;;;12.26;73.37
40155;BME280;25875;48.202;16.334;2023-05-20T02:23:49;99513.19;;;12.41;73.80
40155;BME280;25875;48.202;16.334;2023-05-20T02:26:16;99558.50;;;12.68;73.61
40155;BME280;25875;48.202;16.334;2023-05-20T02:28:44;99551.56;;;12.65;73.86
40155;BME280;25875;48.202;16.334;2023-05-20T02:31:15;99545.69;;;12.60;73.67
40155;BME280;25875;48.202;16.334;2023-05-20T02:33:44;99416.84;;;11.77;73.94
40155;BME280;25875;48.202;16.334;2023-05-20T02:36:11;99558.13;;;12.60;73.72
40155;BME280;25875;48.202;16.334;2023-05-20T02:38:38;99560.00;;;12.58;73.68
40155;BME280;25875;48.202;16.334;2023-05-20T02:41:05;99553.94;;;12.56;73.54
40155;BME280;25875;48.202;16.334;2023-05-20T02:43:32;99560.28;;;12.53;73.96
40155;BME280;25875;48.202;16.334;2023-05-20T02:46:00;99554.13;;;12.52;73.73
40155;BME280;25875;48.202;16.334;2023-05-20T02:48:27;99552.50;;;12.50;74.18
40155;BME280;25875;48.202;16.334;2023-05-20T02:50:57;99558.84;;;12.47;74.04
40155;BME280;25875;48.202;16.334;2023-05-20T02:53:24;99551.81;;;12.46;74.33
40155;BME280;25875;48.202;16.334;2023-05-20T02:55:51;99556.38;;;12.44;73.93
40155;BME280;25875;48.202;16.334;2023-05-20T02:58:18;99571.38;;;12.45;73.86
40155;BME280;25875;48.202;16.334;2023-05-20T03:00:50;99562.63;;;12.43;73.94
40155;BME280;25875;48.202;16.334;2023-05-20T03:03:17;99567.94;;;12.43;73.86
40155;BME280;25875;48.202;16.334;2023-05-20T03:05:44;99553.03;;;12.41;74.07
40155;BME280;25875;48.202;16.334;2023-05-20T03:08:12;99552.19;;;12.40;74.25
40155;BME280;25875;48.202;16.334;2023-05-20T03:10:39;99561.09;;;12.39;74.07
40155;BME280;25875;48.202;16.334;2023-05-20T03:13:07;99502.38;;;11.98;74.03
40155;BME280;25875;48.202;16.334;2023-05-20T03:15:35;99557.59;;;12.39;73.87
40155;BME280;25875;48.202;16.334;2023-05-20T03:18:02;99562.25;;;12.35;73.61
40155;BME280;25875;48.202;16.334;2023-05-20T03:20:29;99563.19;;;12.34;73.90
40155;BME280;25875;48.202;16.334;2023-05-20T03:22:57;99557.88;;;12.34;73.81
40155;BME280;25875;48.202;16.334;2023-05-20T03:25:25;99516.00;;;12.08;73.82
40155;BME280;25875;48.202;16.334;2023-05-20T03:27:51;99405.72;;;11.41;73.66
40155;BME280;25875;48.202;16.334;2023-05-20T03:30:18;99565.94;;;12.33;73.76
40155;BME280;25875;48.202;16.334;2023-05-20T03:32:46;99571.25;;;12.33;73.90
40155;BME280;25875;48.202;16.334;2023-05-20T03:35:12;99575.88;;;12.29;74.02
40155;BME280;25875;48.202;16.334;2023-05-20T03:37:39;99568.00;;;12.28;73.88
40155;BME280;25875;48.202;16.334;2023-05-20T03:40:07;99500.53;;;11.84;74.14
40155;BME280;25875;48.202;16.334;2023-05-20T03:42:36;99530.72;;;11.98;74.20
40155;BME280;25875;48.202;16.334;2023-05-20T03:45:03;99572.63;;;12.24;73.97
40155;BME280;25875;48.202;16.334;2023-05-20T03:47:30;99571.78;;;12.24;74.27
40155;BME280;25875;48.202;16.334;2023-05-20T03:49:57;99579.66;;;12.25;73.98
40155;BME280;25875;48.202;16.334;2023-05-20T03:52:23;99582.41;;;12.24;74.07
40155;BME280;25875;48.202;16.334;2023-05-20T03:54:50;99594.06;;;12.21;74.15
40155;BME280;25875;48.202;16.334;2023-05-20T03:57:17;99586.97;;;12.22;74.30
40155;BME280;25875;48.202;16.334;2023-05-20T03:59:46;99395.84;;;11.13;74.34
40155;BME280;25875;48.202;16.334;2023-05-20T04:02:13;99575.47;;;12.21;74.11
40155;BME280;25875;48.202;16.334;2023-05-20T04:04:40;99577.19;;;12.22;74.12
40155;BME280;25875;48.202;16.334;2023-05-20T04:07:07;99571.03;;;12.22;74.11
40155;BME280;25875;48.202;16.334;2023-05-20T04:09:34;99546.84;;;12.10;74.19
40155;BME280;25875;48.202;16.334;2023-05-20T04:12:00;99563.81;;;12.24;74.16
40155;BME280;25875;48.202;16.334;2023-05-20T04:14:27;99563.72;;;12.25;73.94
40155;BME280;25875;48.202;16.334;2023-05-20T04:16:55;99567.25;;;12.26;74.17
40155;BME280;25875;48.202;16.334;2023-05-20T04:19:22;99567.25;;;12.26;74.14
40155;BME280;25875;48.202;16.334;2023-05-20T04:21:52;99569.91;;;12.26;74.24
40155;BME280;25875;48.202;16.334;2023-05-20T04:24:19;99579.84;;;12.22;74.31
40155;BME280;25875;48.202;16.334;2023-05-20T04:26:50;99589.81;;;12.18;74.48
40155;BME280;25875;48.202;16.334;2023-05-20T04:29:17;99544.38;;;11.92;74.64
40155;BME280;25875;48.202;16.334;2023-05-20T04:31:44;99595.78;;;12.22;74.40
40155;BME280;25875;48.202;16.334;2023-05-20T04:34:13;99604.53;;;12.24;74.54
40155;BME280;25875;48.202;16.334;2023-05-20T04:36:43;99601.69;;;12.27;74.25
40155;BME280;25875;48.202;16.334;2023-05-20T04:39:10;99610.53;;;12.28;74.20
40155;BME280;25875;48.202;16.334;2023-05-20T04:41:38;99608.81;;;12.27;74.43
40155;BME280;25875;48.202;16.334;2023-05-20T04:44:04;99605.22;;;12.28;74.63
40155;BME280;25875;48.202;16.334;2023-05-20T04:46:31;99605.97;;;12.30;74.44
40155;BME280;25875;48.202;16.334;2023-05-20T04:48:58;99562.97;;;12.07;74.52
40155;BME280;25875;48.202;16.334;2023-05-20T04:51:26;99602.19;;;12.34;74.13
40155;BME280;25875;48.202;16.334;2023-05-20T04:53:53;99566.47;;;12.08;74.58
40155;BME280;25875;48.202;16.334;2023-05-20T04:56:20;99587.00;;;12.36;74.20
40155;BME280;25875;48.202;16.334;2023-05-20T04:58:47;99587.69;;;12.39;74.48
40155;BME280;25875;48.202;16.334;2023-05-20T05:01:14;99583.13;;;12.41;74.26
40155;BME280;25875;48.202;16.334;2023-05-20T05:03:40;99468.59;;;11.70;74.45
40155;BME280;25875;48.202;16.334;2023-05-20T05:06:07;99465.44;;;11.64;74.70
40155;BME280;25875;48.202;16.334;2023-05-20T05:08:35;99598.91;;;12.44;74.46
40155;BME280;25875;48.202;16.334;2023-05-20T05:11:04;99370.09;;;11.15;74.62
40155;BME280;25875;48.202;16.334;2023-05-20T05:13:31;99595.13;;;12.48;74.75
40155;BME280;25875;48.202;16.334;2023-05-20T05:15:58;99593.31;;;12.49;74.57
40155;BME280;25875;48.202;16.334;2023-05-20T05:18:25;99599.31;;;12.52;74.46
40155;BME280;25875;48.202;16.334;2023-05-20T05:20:58;99523.22;;;12.06;74.45
40155;BME280;25875;48.202;16.334;2023-05-20T05:23:25;99599.88;;;12.58;74.15
40155;BME280;25875;48.202;16.334;2023-05-20T05:25:53;99607.78;;;12.59;74.19
40155;BME280;25875;48.202;16.334;2023-05-20T05:28:20;99605.88;;;12.61;74.08
40155;BME280;25875;48.202;16.334;2023-05-20T05:30:47;99607.50;;;12.64;74.19
40155;BME280;25875;48.202;16.334;2023-05-20T05:33:13;99612.81;;;12.64;74.18
40155;BME280;25875;48.202;16.334;2023-05-20T05:35:40;99591.56;;;12.64;74.15
40155;BME280;25875;48.202;16.334;2023-05-20T05:38:07;99600.38;;;12.64;74.06
40155;BME280;25875;48.202;16.334;2023-05-20T05:40:34;99612.63;;;12.67;74.04
40155;BME280;25875;48.202;16.334;2023-05-20T05:43:02;99605.16;;;12.73;74.00
40155;BME280;25875;48.202;16.334;2023-05-20T05:45:29;99596.91;;;12.78;74.15
40155;BME280;25875;48.202;16.334;2023-05-20T05:47:56;99586.75;;;12.84;73.95
40155;BME280;25875;48.202;16.334;2023-05-20T05:50:23;99582.84;;;12.90;73.63
40155;BME280;25875;48.202;16.334;2023-05-20T05:52:49;99575.44;;;12.95;73.88
40155;BME280;25875;48.202;16.334;2023-05-20T05:55:16;99582.28;;;12.99;73.71
40155;BME280;25875;48.202;16.334;2023-05-20T05:57:43;99411.06;;;12.01;73.63
40155;BME280;25875;48.202;16.334;2023-05-20T06:00:13;99584.28;;;13.10;73.68
40155;BME280;25875;48.202;16.334;2023-05-20T06:02:40;99580.19;;;13.19;73.22
40155;BME280;25875;48.202;16.334;2023-05-20T06:05:07;99575.44;;;13.24;73.37
40155;BME280;25875;48.202;16.334;2023-05-20T06:07:34;99576.88;;;13.29;73.31
40155;BME280;25875;48.202;16.334;2023-05-20T06:10:01;99571.25;;;13.34;73.19
40155;BME280;25875;48.202;16.334;2023-05-20T06:12:28;99577.13;;;13.39;73.19
40155;BME280;25875;48.202;16.334;2023-05-20T06:14:55;99570.72;;;13.43;72.78
40155;BME280;25875;48.202;16.334;2023-05-20T06:17:23;99566.03;;;13.46;72.81
40155;BME280;25875;48.202;16.334;2023-05-20T06:19:49;99560.72;;;13.46;72.61
40155;BME280;25875;48.202;16.334;2023-05-20T06:22:16;99563.94;;;13.52;72.90
40155;BME280;25875;48.202;16.334;2023-05-20T06:24:43;99561.84;;;13.57;72.56
40155;BME280;25875;48.202;16.334;2023-05-20T06:27:10;99566.78;;;13.63;72.72
40155;BME280;25875;48.202;16.334;2023-05-20T06:29:36;99575.22;;;13.69;72.33
40155;BME280;25875;48.202;16.334;2023-05-20T06:32:03;99584.53;;;13.76;72.28
40155;BME280;25875;48.202;16.334;2023-05-20T06:34:32;99581.66;;;13.79;71.79
40155;BME280;25875;48.202;16.334;2023-05-20T06:36:59;99574.31;;;13.83;71.83
40155;BME280;25875;48.202;16.334;2023-05-20T06:39:25;99581.06;;;13.89;71.88
40155;BME280;25875;48.202;16.334;2023-05-20T06:41:52;99581.63;;;13.94;72.02
40155;BME280;25875;48.202;16.334;2023-05-20T06:44:19;99583.78;;;14.01;71.55
40155;BME280;25875;48.202;16.334;2023-05-20T06:46:45;99583.38;;;14.07;71.05
40155;BME280;25875;48.202;16.334;2023-05-20T06:49:12;99575.72;;;14.16;71.08
40155;BME280;25875;48.202;16.334;2023-05-20T06:51:40;99397.13;;;13.24;71.02
40155;BME280;25875;48.202;16.334;2023-05-20T06:54:08;99577.72;;;14.39;70.74
40155;BME280;25875;48.202;16.334;2023-05-20T06:56:35;99574.13;;;14.53;70.42
40155;BME280;25875;48.202;16.334;2023-05-20T06:59:01;99560.97;;;14.64;70.33
40155;BME280;25875;48.202;16.334;2023-05-20T07:01:28;99551.25;;;14.63;69.94
40155;BME280;25875;48.202;16.334;2023-05-20T07:03:55;99565.88;;;14.70;69.57
40155;BME280;25875;48.202;16.334;2023-05-20T07:06:22;99566.09;;;14.67;69.28
40155;BME280;25875;48.202;16.334;2023-05-20T07:08:50;99559.59;;;14.71;69.71
40155;BME280;25875;48.202;16.334;2023-05-20T07:11:17;99559.16;;;14.77;69.80
40155;BME280;25875;48.202;16.334;2023-05-20T07:13:43;99497.72;;;14.52;69.44
40155;BME280;25875;48.202;16.334;2023-05-20T07:16:10;99548.59;;;14.88;69.47
40155;BME280;25875;48.202;16.334;2023-05-20T07:18:37;99554.47;;;14.93;69.20
40155;BME280;25875;48.202;16.334;2023-05-20T07:21:04;99553.28;;;14.97;69.05
40155;BME280;25875;48.202;16.334;2023-05-20T07:23:30;99541.75;;;14.97;68.87
40155;BME280;25875;48.202;16.334;2023-05-20T07:25:58;99540.06;;;14.96;69.31
40155;BME280;25875;48.202;16.334;2023-05-20T07:28:25;99540.81;;;14.98;69.13
40155;BME280;25875;48.202;16.334;2023-05-20T07:30:52;99360.91;;;14.00;69.68
40155;BME280;25875;48.202;16.334;2023-05-20T07:33:18;99539.03;;;15.35;69.47
40155;BME280;25875;48.202;16.334;2023-05-20T07:35:46;99530.84;;;15.62;69.15
40155;BME280;25875;48.202;16.334;2023-05-20T07:38:13;99426.19;;;15.20;68.47
40155;BME280;25875;48.202;16.334;2023-05-20T07:40:40;99488.09;;;15.62;67.54
40155;BME280;25875;48.202;16.334;2023-05-20T07:43:08;99535.84;;;16.03;67.33
40155;BME280;25875;48.202;16.334;2023-05-20T07:45:35;99540.78;;;16.20;67.86
40155;BME280;25875;48.202;16.334;2023-05-20T07:48:02;99543.53;;;16.43;67.12
40155;BME280;25875;48.202;16.334;2023-05-20T07:50:29;99538.34;;;16.63;66.74
40155;BME280;25875;48.202;16.334;2023-05-20T07:52:55;99536.09;;;16.81;65.96
40155;BME280;25875;48.202;16.334;2023-05-20T07:55:22;99526.59;;;16.77;65.33
40155;BME280;25875;48.202;16.334;2023-05-20T07:57:49;99508.47;;;16.81;65.47
40155;BME280;25875;48.202;16.334;2023-05-20T08:00:17;99415.50;;;16.49;64.82
40155;BME280;25875;48.202;16.334;2023-05-20T08:02:45;99519.09;;;17.38;64.86
40155;BME280;25875;48.202;16.334;2023-05-20T08:05:12;99518.44;;;17.57;63.77
40155;BME280;25875;48.202;16.334;2023-05-20T08:07:38;99519.19;;;17.59;63.39
40155;BME280;25875;48.202;16.334;2023-05-20T08:10:06;99475.63;;;17.35;63.46
40155;BME280;25875;48.202;16.334;2023-05-20T08:12:34;99519.19;;;17.70;63.71
40155;BME280;25875;48.202;16.334;2023-05-20T08:15:00;99491.91;;;17.65;63.02
40155;BME280;25875;48.202;16.334;2023-05-20T08:17:28;99521.19;;;17.89;63.23
40155;BME280;25875;48.202;16.334;2023-05-20T08:19:55;99514.59;;;17.93;62.96
40155;BME280;25875;48.202;16.334;2023-05-20T08:22:22;99502.25;;;18.02;63.08
40155;BME280;25875;48.202;16.334;2023-05-20T08:24:50;99508.22;;;18.05;62.88
40155;BME280;25875;48.202;16.334;2023-05-20T08:27:17;99406.28;;;17.52;62.79
40155;BME280;25875;48.202;16.334;2023-05-20T08:29:44;99496.72;;;18.14;62.89
40155;BME280;25875;48.202;16.334;2023-05-20T08:32:11;99493.66;;;18.19;62.87
40155;BME280;25875;48.202;16.334;2023-05-20T08:34:39;99490.59;;;18.23;62.27
40155;BME280;25875;48.202;16.334;2023-05-20T08:37:07;99486.66;;;18.27;62.31
40155;BME280;25875;48.202;16.334;2023-05-20T08:39:33;99478.94;;;18.34;62.54
40155;BME280;25875;48.202;16.334;2023-05-20T08:42:00;99454.22;;;18.31;62.54
40155;BME280;25875;48.202;16.334;2023-05-20T08:44:28;99473.34;;;18.58;62.22
40155;BME280;25875;48.202;16.334;2023-05-20T08:46:55;99465.91;;;18.71;61.81
40155;BME280;25875;48.202;16.334;2023-05-20T08:49:23;99469.38;;;18.83;61.35
40155;BME280;25875;48.202;16.334;2023-05-20T08:51:51;99476.44;;;18.84;61.31
40155;BME280;25875;48.202;16.334;2023-05-20T08:54:18;99467.72;;;18.91;61.38
40155;BME280;25875;48.202;16.334;2023-05-20T08:56:48;99467.91;;;19.09;60.78
40155;BME280;25875;48.202;16.334;2023-05-20T08:59:16;99478.44;;;19.22;60.55
40155;BME280;25875;48.202;16.334;2023-05-20T09:01:43;99335.09;;;18.43;60.51
40155;BME280;25875;48.202;16.334;2023-05-20T09:04:10;99468.66;;;19.21;60.20
40155;BME280;25875;48.202;16.334;2023-05-20T09:06:46;99274.47;;;18.00;58.59
40155;BME280;25875;48.202;16.334;2023-05-20T09:09:14;99429.84;;;18.95;60.51
40155;BME280;25875;48.202;16.334;2023-05-20T09:11:42;99458.91;;;19.20;60.77
40155;BME280;25875;48.202;16.334;2023-05-20T09:14:08;99459.47;;;19.14;60.39
40155;BME280;25875;48.202;16.334;2023-05-20T09:16:35;99456.31;;;19.09;60.66
40155;BME280;25875;48.202;16.334;2023-05-20T09:19:04;99451.22;;;19.06;60.42
40155;BME280;25875;48.202;16.334;2023-05-20T09:21:31;99451.22;;;19.06;60.79
40155;BME280;25875;48.202;16.334;2023-05-20T09:24:00;99449.13;;;19.09;60.75
40155;BME280;25875;48.202;16.334;2023-05-20T09:26:29;99419.38;;;18.91;60.43
40155;BME280;25875;48.202;16.334;2023-05-20T09:28:56;99338.19;;;18.38;60.50
40155;BME280;25875;48.202;16.334;2023-05-20T09:31:25;99460.34;;;19.24;60.12
40155;BME280;25875;48.202;16.334;2023-05-20T09:33:53;99365.34;;;18.75;60.22
40155;BME280;25875;48.202;16.334;2023-05-20T09:36:22;99450.78;;;19.41;60.04
40155;BME280;25875;48.202;16.334;2023-05-20T09:38:51;99369.22;;;19.02;59.87
40155;BME280;25875;48.202;16.334;2023-05-20T09:41:22;99446.03;;;19.64;59.42
40155;BME280;25875;48.202;16.334;2023-05-20T09:43:51;99411.34;;;19.51;59.53
40155;BME280;25875;48.202;16.334;2023-05-20T09:46:19;99439.84;;;19.82;59.39
40155;BME280;25875;48.202;16.334;2023-05-20T09:48:46;99444.94;;;19.95;59.27
40155;BME280;25875;48.202;16.334;2023-05-20T09:51:14;99440.41;;;20.05;58.67
40155;BME280;25875;48.202;16.334;2023-05-20T09:53:41;99367.06;;;19.65;58.63
40155;BME280;25875;48.202;16.334;2023-05-20T09:56:09;99436.72;;;20.26;58.42
40155;BME280;25875;48.202;16.334;2023-05-20T09:58:36;99359.72;;;19.96;58.24
40155;BME280;25875;48.202;16.334;2023-05-20T10:01:08;99432.72;;;20.49;57.15
40155;BME280;25875;48.202;16.334;2023-05-20T10:03:34;99425.59;;;20.58;57.58
40155;BME280;25875;48.202;16.334;2023-05-20T10:06:19;99398.16;;;20.44;56.02
40155;BME280;25875;48.202;16.334;2023-05-20T10:09:18;99139.25;;;19.01;55.89
40155;BME280;25875;48.202;16.334;2023-05-20T10:11:56;99350.13;;;20.40;56.04
40155;BME280;25875;48.202;16.334;2023-05-20T10:14:39;99383.72;;;20.73;55.71
40155;BME280;25875;48.202;16.334;2023-05-20T10:17:16;99384.25;;;20.86;55.49
40155;BME280;25875;48.202;16.334;2023-05-20T10:19:45;99375.00;;;20.89;56.63
40155;BME280;25875;48.202;16.334;2023-05-20T10:22:12;99405.22;;;21.20;56.79
40155;BME280;25875;48.202;16.334;2023-05-20T10:24:41;99394.22;;;21.31;56.30
40155;BME280;25875;48.202;16.334;2023-05-20T10:27:09;99309.91;;;20.93;56.12
40155;BME280;25875;48.202;16.334;2023-05-20T10:29:44;99364.19;;;21.43;54.33
40155;BME280;25875;48.202;16.334;2023-05-20T10:32:27;99397.94;;;21.65;53.70
40155;BME280;25875;48.202;16.334;2023-05-20T10:34:58;99397.31;;;21.71;54.47
40155;BME280;25875;48.202;16.334;2023-05-20T10:37:31;99382.78;;;21.82;55.13
40155;BME280;25875;48.202;16.334;2023-05-20T10:40:08;99383.72;;;21.91;53.94
40155;BME280;25875;48.202;16.334;2023-05-20T10:42:37;99336.69;;;21.75;54.74
40155;BME280;25875;48.202;16.334;2023-05-20T10:45:06;99315.50;;;21.63;54.24
40155;BME280;25875;48.202;16.334;2023-05-20T10:47:34;99323.53;;;21.55;53.60
40155;BME280;25875;48.202;16.334;2023-05-20T10:50:02;99369.88;;;21.76;54.83
40155;BME280;25875;48.202;16.334;2023-05-20T10:52:32;99298.56;;;21.17;54.49
40155;BME280;25875;48.202;16.334;2023-05-20T10:54:59;99370.75;;;21.76;54.98
40155;BME280;25875;48.202;16.334;2023-05-20T10:57:27;99365.81;;;21.72;54.73
40155;BME280;25875;48.202;16.334;2023-05-20T10:59:54;99366.81;;;21.71;54.59
40155;BME280;25875;48.202;16.334;2023-05-20T11:02:22;99290.09;;;21.30;54.63
40155;BME280;25875;48.202;16.334;2023-05-20T11:04:54;99303.81;;;21.36;54.46
40155;BME280;25875;48.202;16.334;2023-05-20T11:07:25;99340.53;;;21.55;54.48
40155;BME280;25875;48.202;16.334;2023-05-20T11:09:53;99355.41;;;21.77;55.02
40155;BME280;25875;48.202;16.334;2023-05-20T11:12:20;99352.34;;;21.90;54.55
40155;BME280;25875;48.202;16.334;2023-05-20T11:14:47;99346.16;;;21.97;54.38
40155;BME280;25875;48.202;16.334;2023-05-20T11:17:15;99347.38;;;22.03;53.98
40155;BME280;25875;48.202;16.334;2023-05-20T11:19:42;99348.59;;;22.08;54.26
40155;BME280;25875;48.202;16.334;2023-05-20T11:22:10;99352.13;;;22.09;53.14
40155;BME280;25875;48.202;16.334;2023-05-20T11:24:37;99399.34;;;22.05;53.57
40155;BME280;25875;48.202;16.334;2023-05-20T11:27:05;99310.56;;;21.76;53.52
40155;BME280;25875;48.202;16.334;2023-05-20T11:29:33;99301.84;;;21.64;54.14
40155;BME280;25875;48.202;16.334;2023-05-20T11:32:00;99379.47;;;21.88;54.14
40155;BME280;25875;48.202;16.334;2023-05-20T11:34:32;99345.72;;;21.84;52.81
40155;BME280;25875;48.202;16.334;2023-05-20T11:36:59;99352.50;;;21.88;53.88
40155;BME280;25875;48.202;16.334;2023-05-20T11:39:29;99347.78;;;21.90;53.21
40155;BME280;25875;48.202;16.334;2023-05-20T11:41:57;99318.72;;;21.66;54.38
40155;BME280;25875;48.202;16.334;2023-05-20T11:44:23;99346.94;;;21.90;54.05
40155;BME280;25875;48.202;16.334;2023-05-20T11:46:50;99353.56;;;21.95;54.26
40155;BME280;25875;48.202;16.334;2023-05-20T11:49:17;99344.84;;;22.01;53.88
40155;BME280;25875;48.202;16.334;2023-05-20T11:51:44;99354.63;;;22.02;53.06
40155;BME280;25875;48.202;16.334;2023-05-20T11:54:11;99255.72;;;21.50;53.12
40155;BME280;25875;48.202;16.334;2023-05-20T11:56:39;99314.09;;;21.94;52.97
40155;BME280;25875;48.202;16.334;2023-05-20T11:59:08;99322.66;;;22.16;52.50
40155;BME280;25875;48.202;16.334;2023-05-20T12:01:36;99329.84;;;22.33;52.34
40155;BME280;25875;48.202;16.334;2023-05-20T12:04:05;99337.25;;;22.31;52.35
40155;BME280;25875;48.202;16.334;2023-05-20T12:06:32;99344.00;;;22.27;52.42
40155;BME280;25875;48.202;16.334;2023-05-20T12:09:01;99313.66;;;22.07;52.02
40155;BME280;25875;48.202;16.334;2023-05-20T12:11:32;99300.28;;;21.97;51.77
40155;BME280;25875;48.202;16.334;2023-05-20T12:14:00;99328.69;;;22.09;51.83
40155;BME280;25875;48.202;16.334;2023-05-20T12:16:27;99324.47;;;22.07;51.99
40155;BME280;25875;48.202;16.334;2023-05-20T12:18:54;99323.66;;;22.15;51.94
40155;BME280;25875;48.202;16.334;2023-05-20T12:21:20;99314.94;;;22.21;51.73
40155;BME280;25875;48.202;16.334;2023-05-20T12:23:47;99316.84;;;22.28;51.74
40155;BME280;25875;48.202;16.334;2023-05-20T12:26:14;99314.13;;;22.28;51.77
40155;BME280;25875;48.202;16.334;2023-05-20T12:28:42;99305.56;;;22.33;51.59
40155;BME280;25875;48.202;16.334;2023-05-20T12:31:10;99313.41;;;22.44;50.98
40155;BME280;25875;48.202;16.334;2023-05-20T12:33:37;99311.56;;;22.45;51.35
40155;BME280;25875;48.202;16.334;2023-05-20T12:36:04;99281.63;;;22.38;51.31
40155;BME280;25875;48.202;16.334;2023-05-20T12:38:31;99298.56;;;22.48;50.86
40155;BME280;25875;48.202;16.334;2023-05-20T12:40:59;99298.09;;;22.53;50.97
40155;BME280;25875;48.202;16.334;2023-05-20T12:43:26;99303.34;;;22.54;50.89
40155;BME280;25875;48.202;16.334;2023-05-20T12:45:53;99295.72;;;22.50;51.06
40155;BME280;25875;48.202;16.334;2023-05-20T12:48:21;99297.72;;;22.48;51.22
40155;BME280;25875;48.202;16.334;2023-05-20T12:50:48;99292.16;;;22.49;50.22
40155;BME280;25875;48.202;16.334;2023-05-20T12:53:15;99227.66;;;22.12;50.48